sensor_id;sensor_type;location;lat;lon;timestamp;P1;durP1;ratioP1;P2;durP2;ratioP2
29546;SDS011;40782;47.264;11.330;2022-08-27T00:01:24;10.48;;;9.57;;
29546;SDS011;40782;47.264;11.330;2022-08-27T00:03:53;11.15;;;9.70;;
29546;SDS011;40782;47.264;11.330;2022-08-27T00:06:21;10.65;;;9.75;;
29546;SDS011;40782;47.264;11.330;2022-08-27T00:08:50;13.27;;;10.88;;
29546;SDS011;40782;47.264;11.330;2022-08-27T00:11:19;11.32;;;10.00;;
29546;SDS011;40782;47.264;11.330;2022-08-27T00:13:49;11.33;;;10.23;;
29546;SDS011;40782;47.264;11.330;2022-08-27T00:16:16;11.15;;;10.18;;
29546;SDS011;40782;47.264;11.330;2022-08-27T00:18:44;11.35;;;10.40;;
29546;SDS011;40782;47.264;11.330;2022-08-27T00:21:13;11.35;;;10.25;;
29546;SDS011;40782;47.264;11.330;2022-08-27T00:23:41;11.77;;;10.68;;
29546;SDS011;40782;47.264;11.330;2022-08-27T00:26:08;10.90;;;9.93;;
29546;SDS011;40782;47.264;11.330;2022-08-27T00:28:36;11.13;;;10.13;;
29546;SDS011;40782;47.264;11.330;2022-08-27T00:31:04;11.95;;;10.75;;
29546;SDS011;40782;47.264;11.330;2022-08-27T00:33:32;11.82;;;10.77;;
29546;SDS011;40782;47.264;11.330;2022-08-27T00:36:00;12.65;;;11.55;;
29546;SDS011;40782;47.264;11.330;2022-08-27T00:38:29;13.88;;;12.55;;
29546;SDS011;40782;47.264;11.330;2022-08-27T00:40:56;13.57;;;12.38;;
29546;SDS011;40782;47.264;11.330;2022-08-27T00:43:26;14.90;;;13.52;;
29546;SDS011;40782;47.264;11.330;2022-08-27T00:45:57;14.90;;;13.50;;
29546;SDS011;40782;47.264;11.330;2022-08-27T00:48:30;13.13;;;11.93;;
29546;SDS011;40782;47.264;11.330;2022-08-27T00:50:59;12.85;;;11.65;;
29546;SDS011;40782;47.264;11.330;2022-08-27T00:53:29;11.35;;;10.35;;
29546;SDS011;40782;47.264;11.330;2022-08-27T00:56:02;12.13;;;9.98;;
29546;SDS011;40782;47.264;11.330;2022-08-27T00:58:34;11.20;;;10.20;;
29546;SDS011;40782;47.264;11.330;2022-08-27T01:01:06;10.45;;;9.45;;
29546;SDS011;40782;47.264;11.330;2022-08-27T01:03:35;12.38;;;8.38;;
29546;SDS011;40782;47.264;11.330;2022-08-27T01:06:03;9.23;;;8.35;;
29546;SDS011;40782;47.264;11.330;2022-08-27T01:11:05;8.70;;;7.90;;
29546;SDS011;40782;47.264;11.330;2022-08-27T01:13:33;8.18;;;7.57;;
29546;SDS011;40782;47.264;11.330;2022-08-27T01:16:00;9.00;;;8.15;;
29546;SDS011;40782;47.264;11.330;2022-08-27T01:18:28;8.75;;;7.97;;
29546;SDS011;40782;47.264;11.330;2022-08-27T01:20:59;7.77;;;7.13;;
29546;SDS011;40782;47.264;11.330;2022-08-27T01:23:32;7.93;;;6.38;;
29546;SDS011;40782;47.264;11.330;2022-08-27T01:26:09;6.55;;;5.72;;
29546;SDS011;40782;47.264;11.330;2022-08-27T01:28:40;6.15;;;5.47;;
29546;SDS011;40782;47.264;11.330;2022-08-27T01:31:09;4.68;;;4.28;;
29546;SDS011;40782;47.264;11.330;2022-08-27T01:33:38;4.03;;;3.65;;
29546;SDS011;40782;47.264;11.330;2022-08-27T01:36:05;3.20;;;2.90;;
29546;SDS011;40782;47.264;11.330;2022-08-27T01:38:33;2.50;;;2.30;;
29546;SDS011;40782;47.264;11.330;2022-08-27T01:41:00;3.75;;;2.97;;
29546;SDS011;40782;47.264;11.330;2022-08-27T01:43:29;2.33;;;2.20;;
29546;SDS011;40782;47.264;11.330;2022-08-27T01:45:57;3.05;;;2.38;;
29546;SDS011;40782;47.264;11.330;2022-08-27T01:48:24;2.50;;;2.30;;
29546;SDS011;40782;47.264;11.330;2022-08-27T01:50:51;3.25;;;2.15;;
29546;SDS011;40782;47.264;11.330;2022-08-27T01:53:19;2.95;;;2.65;;
29546;SDS011;40782;47.264;11.330;2022-08-27T01:55:48;2.92;;;2.78;;
29546;SDS011;40782;47.264;11.330;2022-08-27T01:58:17;2.90;;;2.70;;
29546;SDS011;40782;47.264;11.330;2022-08-27T02:00:48;2.72;;;2.53;;
29546;SDS011;40782;47.264;11.330;2022-08-27T02:03:17;2.60;;;2.40;;
29546;SDS011;40782;47.264;11.330;2022-08-27T02:05:44;2.65;;;2.45;;
29546;SDS011;40782;47.264;11.330;2022-08-27T02:08:13;2.38;;;2.28;;
29546;SDS011;40782;47.264;11.330;2022-08-27T02:10:42;3.38;;;2.30;;
29546;SDS011;40782;47.264;11.330;2022-08-27T02:13:10;2.53;;;2.33;;
29546;SDS011;40782;47.264;11.330;2022-08-27T02:15:38;2.92;;;2.72;;
29546;SDS011;40782;47.264;11.330;2022-08-27T02:18:08;2.28;;;2.08;;
29546;SDS011;40782;47.264;11.330;2022-08-27T02:20:38;2.57;;;2.40;;
29546;SDS011;40782;47.264;11.330;2022-08-27T02:23:05;2.78;;;2.50;;
29546;SDS011;40782;47.264;11.330;2022-08-27T02:25:33;2.60;;;2.40;;
29546;SDS011;40782;47.264;11.330;2022-08-27T02:28:02;2.65;;;2.55;;
29546;SDS011;40782;47.264;11.330;2022-08-27T02:30:30;2.78;;;2.38;;
29546;SDS011;40782;47.264;11.330;2022-08-27T02:32:58;2.80;;;2.60;;
29546;SDS011;40782;47.264;11.330;2022-08-27T02:35:29;2.72;;;2.50;;
29546;SDS011;40782;47.264;11.330;2022-08-27T02:37:57;4.10;;;3.00;;
29546;SDS011;40782;47.264;11.330;2022-08-27T02:40:26;2.60;;;2.40;;
29546;SDS011;40782;47.264;11.330;2022-08-27T02:42:53;3.03;;;2.42;;
29546;SDS011;40782;47.264;11.330;2022-08-27T02:45:21;3.08;;;2.88;;
29546;SDS011;40782;47.264;11.330;2022-08-27T02:47:48;4.90;;;2.75;;
29546;SDS011;40782;47.264;11.330;2022-08-27T02:50:15;2.80;;;2.60;;
29546;SDS011;40782;47.264;11.330;2022-08-27T02:52:44;2.75;;;2.50;;
29546;SDS011;40782;47.264;11.330;2022-08-27T02:55:12;3.35;;;2.72;;
29546;SDS011;40782;47.264;11.330;2022-08-27T02:57:40;2.40;;;2.30;;
29546;SDS011;40782;47.264;11.330;2022-08-27T03:00:09;3.00;;;2.80;;
29546;SDS011;40782;47.264;11.330;2022-08-27T03:02:38;3.08;;;2.78;;
29546;SDS011;40782;47.264;11.330;2022-08-27T03:05:06;4.05;;;3.65;;
29546;SDS011;40782;47.264;11.330;2022-08-27T03:07:33;4.60;;;3.03;;
29546;SDS011;40782;47.264;11.330;2022-08-27T03:10:03;3.47;;;2.85;;
29546;SDS011;40782;47.264;11.330;2022-08-27T03:12:31;2.95;;;2.75;;
29546;SDS011;40782;47.264;11.330;2022-08-27T03:15:00;2.72;;;2.50;;
29546;SDS011;40782;47.264;11.330;2022-08-27T03:17:28;3.67;;;3.03;;
29546;SDS011;40782;47.264;11.330;2022-08-27T03:20:12;3.08;;;2.88;;
29546;SDS011;40782;47.264;11.330;2022-08-27T03:22:39;3.88;;;3.25;;
29546;SDS011;40782;47.264;11.330;2022-08-27T03:25:08;2.88;;;2.67;;
29546;SDS011;40782;47.264;11.330;2022-08-27T03:27:36;3.55;;;3.00;;
29546;SDS011;40782;47.264;11.330;2022-08-27T03:30:05;3.67;;;3.30;;
29546;SDS011;40782;47.264;11.330;2022-08-27T03:32:34;3.45;;;3.10;;
29546;SDS011;40782;47.264;11.330;2022-08-27T03:35:02;3.08;;;2.88;;
29546;SDS011;40782;47.264;11.330;2022-08-27T03:37:30;3.38;;;3.17;;
29546;SDS011;40782;47.264;11.330;2022-08-27T03:39:57;3.45;;;3.15;;
29546;SDS011;40782;47.264;11.330;2022-08-27T03:42:26;2.92;;;2.72;;
29546;SDS011;40782;47.264;11.330;2022-08-27T03:44:53;4.60;;;3.33;;
29546;SDS011;40782;47.264;11.330;2022-08-27T03:47:21;3.25;;;2.97;;
29546;SDS011;40782;47.264;11.330;2022-08-27T03:49:48;3.25;;;2.92;;
29546;SDS011;40782;47.264;11.330;2022-08-27T03:52:16;3.08;;;2.88;;
29546;SDS011;40782;47.264;11.330;2022-08-27T03:54:43;3.28;;;3.08;;
29546;SDS011;40782;47.264;11.330;2022-08-27T03:57:11;3.70;;;3.40;;
29546;SDS011;40782;47.264;11.330;2022-08-27T03:59:40;4.22;;;3.47;;
29546;SDS011;40782;47.264;11.330;2022-08-27T04:02:07;4.00;;;3.63;;
29546;SDS011;40782;47.264;11.330;2022-08-27T04:04:34;3.83;;;3.58;;
29546;SDS011;40782;47.264;11.330;2022-08-27T04:07:01;3.65;;;3.35;;
29546;SDS011;40782;47.264;11.330;2022-08-27T04:09:29;3.78;;;3.47;;
29546;SDS011;40782;47.264;11.330;2022-08-27T04:11:56;3.65;;;3.45;;
29546;SDS011;40782;47.264;11.330;2022-08-27T04:14:23;3.58;;;3.28;;
29546;SDS011;40782;47.264;11.330;2022-08-27T04:16:51;3.85;;;3.42;;
29546;SDS011;40782;47.264;11.330;2022-08-27T04:19:20;4.18;;;3.72;;
29546;SDS011;40782;47.264;11.330;2022-08-27T04:21:47;4.22;;;3.88;;
29546;SDS011;40782;47.264;11.330;2022-08-27T04:24:14;4.05;;;3.60;;
29546;SDS011;40782;47.264;11.330;2022-08-27T04:26:41;4.65;;;3.58;;
29546;SDS011;40782;47.264;11.330;2022-08-27T04:29:09;3.75;;;3.55;;
29546;SDS011;40782;47.264;11.330;2022-08-27T04:31:36;4.38;;;3.80;;
29546;SDS011;40782;47.264;11.330;2022-08-27T04:34:05;4.03;;;3.70;;
29546;SDS011;40782;47.264;11.330;2022-08-27T04:36:32;3.50;;;3.30;;
29546;SDS011;40782;47.264;11.330;2022-08-27T04:38:59;4.07;;;3.78;;
29546;SDS011;40782;47.264;11.330;2022-08-27T04:41:27;3.78;;;3.53;;
29546;SDS011;40782;47.264;11.330;2022-08-27T04:43:58;4.03;;;3.70;;
29546;SDS011;40782;47.264;11.330;2022-08-27T04:46:29;5.80;;;4.00;;
29546;SDS011;40782;47.264;11.330;2022-08-27T04:48:58;4.55;;;3.90;;
29546;SDS011;40782;47.264;11.330;2022-08-27T04:51:28;5.13;;;4.63;;
29546;SDS011;40782;47.264;11.330;2022-08-27T04:53:55;127.85;;;69.53;;
29546;SDS011;40782;47.264;11.330;2022-08-27T04:56:24;185.80;;;103.90;;
29546;SDS011;40782;47.264;11.330;2022-08-27T04:58:51;121.05;;;67.82;;
29546;SDS011;40782;47.264;11.330;2022-08-27T05:01:20;24.75;;;14.85;;
29546;SDS011;40782;47.264;11.330;2022-08-27T05:03:49;9.70;;;6.80;;
29546;SDS011;40782;47.264;11.330;2022-08-27T05:06:17;7.07;;;4.88;;
29546;SDS011;40782;47.264;11.330;2022-08-27T05:08:46;4.75;;;4.32;;
29546;SDS011;40782;47.264;11.330;2022-08-27T05:11:14;5.22;;;4.70;;
29546;SDS011;40782;47.264;11.330;2022-08-27T05:13:43;5.35;;;3.92;;
29546;SDS011;40782;47.264;11.330;2022-08-27T05:16:12;4.40;;;4.00;;
29546;SDS011;40782;47.264;11.330;2022-08-27T05:18:42;4.40;;;4.00;;
29546;SDS011;40782;47.264;11.330;2022-08-27T05:21:14;4.28;;;3.92;;
29546;SDS011;40782;47.264;11.330;2022-08-27T05:23:42;4.28;;;3.88;;
29546;SDS011;40782;47.264;11.330;2022-08-27T05:26:11;4.68;;;4.25;;
29546;SDS011;40782;47.264;11.330;2022-08-27T05:28:38;4.78;;;4.38;;
29546;SDS011;40782;47.264;11.330;2022-08-27T05:31:07;4.43;;;3.90;;
29546;SDS011;40782;47.264;11.330;2022-08-27T05:33:35;3.90;;;3.58;;
29546;SDS011;40782;47.264;11.330;2022-08-27T05:36:03;3.75;;;3.45;;
29546;SDS011;40782;47.264;11.330;2022-08-27T05:38:32;4.10;;;3.67;;
29546;SDS011;40782;47.264;11.330;2022-08-27T05:41:01;3.80;;;3.50;;
29546;SDS011;40782;47.264;11.330;2022-08-27T05:43:31;4.18;;;3.60;;
29546;SDS011;40782;47.264;11.330;2022-08-27T05:46:01;4.22;;;3.83;;
29546;SDS011;40782;47.264;11.330;2022-08-27T05:51:01;4.30;;;3.30;;
29546;SDS011;40782;47.264;11.330;2022-08-27T05:53:33;4.13;;;3.63;;
29546;SDS011;40782;47.264;11.330;2022-08-27T05:56:00;5.78;;;4.15;;
29546;SDS011;40782;47.264;11.330;2022-08-27T05:58:28;6.65;;;3.80;;
29546;SDS011;40782;47.264;11.330;2022-08-27T06:01:14;4.45;;;3.83;;
29546;SDS011;40782;47.264;11.330;2022-08-27T06:03:43;4.22;;;3.10;;
29546;SDS011;40782;47.264;11.330;2022-08-27T06:06:10;3.35;;;3.15;;
29546;SDS011;40782;47.264;11.330;2022-08-27T06:08:38;4.05;;;3.75;;
29546;SDS011;40782;47.264;11.330;2022-08-27T06:11:06;5.60;;;4.20;;
29546;SDS011;40782;47.264;11.330;2022-08-27T06:13:34;6.78;;;4.43;;
29546;SDS011;40782;47.264;11.330;2022-08-27T06:16:01;4.53;;;4.13;;
29546;SDS011;40782;47.264;11.330;2022-08-27T06:18:31;5.70;;;4.97;;
29546;SDS011;40782;47.264;11.330;2022-08-27T06:20:59;5.28;;;4.65;;
29546;SDS011;40782;47.264;11.330;2022-08-27T06:23:26;5.50;;;4.07;;
29546;SDS011;40782;47.264;11.330;2022-08-27T06:25:54;5.30;;;3.65;;
29546;SDS011;40782;47.264;11.330;2022-08-27T06:28:22;5.05;;;4.60;;
29546;SDS011;40782;47.264;11.330;2022-08-27T06:31:00;5.13;;;4.70;;
29546;SDS011;40782;47.264;11.330;2022-08-27T06:33:28;4.70;;;4.30;;
29546;SDS011;40782;47.264;11.330;2022-08-27T06:35:58;6.90;;;4.38;;
29546;SDS011;40782;47.264;11.330;2022-08-27T06:38:25;4.07;;;3.60;;
29546;SDS011;40782;47.264;11.330;2022-08-27T06:40:53;4.38;;;3.95;;
29546;SDS011;40782;47.264;11.330;2022-08-27T06:43:21;4.50;;;4.10;;
29546;SDS011;40782;47.264;11.330;2022-08-27T06:45:49;4.35;;;3.95;;
29546;SDS011;40782;47.264;11.330;2022-08-27T06:48:16;5.60;;;3.80;;
29546;SDS011;40782;47.264;11.330;2022-08-27T06:50:43;5.78;;;4.45;;
29546;SDS011;40782;47.264;11.330;2022-08-27T06:53:13;4.25;;;3.95;;
29546;SDS011;40782;47.264;11.330;2022-08-27T06:55:40;4.78;;;4.22;;
29546;SDS011;40782;47.264;11.330;2022-08-27T06:58:08;5.15;;;4.43;;
29546;SDS011;40782;47.264;11.330;2022-08-27T07:00:36;4.20;;;3.90;;
29546;SDS011;40782;47.264;11.330;2022-08-27T07:03:04;5.57;;;3.90;;
29546;SDS011;40782;47.264;11.330;2022-08-27T07:05:32;3.22;;;3.03;;
29546;SDS011;40782;47.264;11.330;2022-08-27T07:08:00;4.82;;;3.70;;
29546;SDS011;40782;47.264;11.330;2022-08-27T07:10:29;3.80;;;3.50;;
29546;SDS011;40782;47.264;11.330;2022-08-27T07:12:57;4.93;;;4.53;;
29546;SDS011;40782;47.264;11.330;2022-08-27T07:15:25;3.92;;;3.70;;
29546;SDS011;40782;47.264;11.330;2022-08-27T07:17:52;3.50;;;3.20;;
29546;SDS011;40782;47.264;11.330;2022-08-27T07:20:19;3.67;;;3.00;;
29546;SDS011;40782;47.264;11.330;2022-08-27T07:22:47;2.85;;;2.65;;
29546;SDS011;40782;47.264;11.330;2022-08-27T07:25:17;3.50;;;3.30;;
29546;SDS011;40782;47.264;11.330;2022-08-27T07:27:46;4.07;;;3.35;;
29546;SDS011;40782;47.264;11.330;2022-08-27T07:30:14;3.17;;;2.97;;
29546;SDS011;40782;47.264;11.330;2022-08-27T07:32:42;3.92;;;3.58;;
29546;SDS011;40782;47.264;11.330;2022-08-27T07:35:10;5.03;;;3.70;;
29546;SDS011;40782;47.264;11.330;2022-08-27T07:37:38;3.55;;;3.25;;
29546;SDS011;40782;47.264;11.330;2022-08-27T07:40:08;4.22;;;3.83;;
29546;SDS011;40782;47.264;11.330;2022-08-27T07:42:37;4.53;;;3.70;;
29546;SDS011;40782;47.264;11.330;2022-08-27T07:45:24;4.57;;;3.63;;
29546;SDS011;40782;47.264;11.330;2022-08-27T07:47:51;5.38;;;3.70;;
29546;SDS011;40782;47.264;11.330;2022-08-27T07:50:19;3.70;;;3.10;;
29546;SDS011;40782;47.264;11.330;2022-08-27T07:52:47;4.20;;;2.95;;
29546;SDS011;40782;47.264;11.330;2022-08-27T07:55:15;4.60;;;3.10;;
29546;SDS011;40782;47.264;11.330;2022-08-27T07:57:42;6.05;;;2.92;;
29546;SDS011;40782;47.264;11.330;2022-08-27T08:00:12;2.70;;;2.50;;
29546;SDS011;40782;47.264;11.330;2022-08-27T08:02:41;4.15;;;2.63;;
29546;SDS011;40782;47.264;11.330;2022-08-27T08:05:11;3.05;;;2.85;;
29546;SDS011;40782;47.264;11.330;2022-08-27T08:07:39;2.88;;;2.53;;
29546;SDS011;40782;47.264;11.330;2022-08-27T08:10:07;2.58;;;2.47;;
29546;SDS011;40782;47.264;11.330;2022-08-27T08:12:36;3.03;;;2.60;;
29546;SDS011;40782;47.264;11.330;2022-08-27T08:15:06;5.80;;;2.75;;
29546;SDS011;40782;47.264;11.330;2022-08-27T08:17:35;2.28;;;2.17;;
29546;SDS011;40782;47.264;11.330;2022-08-27T08:20:05;2.80;;;2.60;;
29546;SDS011;40782;47.264;11.330;2022-08-27T08:22:34;2.90;;;2.70;;
29546;SDS011;40782;47.264;11.330;2022-08-27T08:25:01;2.85;;;2.65;;
29546;SDS011;40782;47.264;11.330;2022-08-27T08:27:29;3.20;;;2.78;;
29546;SDS011;40782;47.264;11.330;2022-08-27T08:29:57;2.72;;;2.60;;
29546;SDS011;40782;47.264;11.330;2022-08-27T08:32:24;2.95;;;2.75;;
29546;SDS011;40782;47.264;11.330;2022-08-27T08:34:51;7.32;;;6.53;;
29546;SDS011;40782;47.264;11.330;2022-08-27T08:37:20;4.00;;;3.25;;
29546;SDS011;40782;47.264;11.330;2022-08-27T08:39:48;10.27;;;7.75;;
29546;SDS011;40782;47.264;11.330;2022-08-27T08:42:21;13.98;;;8.70;;
29546;SDS011;40782;47.264;11.330;2022-08-27T08:44:56;24.35;;;16.73;;
29546;SDS011;40782;47.264;11.330;2022-08-27T08:47:28;3.97;;;2.83;;
29546;SDS011;40782;47.264;11.330;2022-08-27T08:49:59;2.38;;;2.28;;
29546;SDS011;40782;47.264;11.330;2022-08-27T08:52:38;2.95;;;2.72;;
29546;SDS011;40782;47.264;11.330;2022-08-27T08:55:19;7.10;;;6.40;;
29546;SDS011;40782;47.264;11.330;2022-08-27T08:58:02;5.00;;;4.13;;
29546;SDS011;40782;47.264;11.330;2022-08-27T09:00:35;2.70;;;2.50;;
29546;SDS011;40782;47.264;11.330;2022-08-27T09:03:04;3.45;;;2.53;;
29546;SDS011;40782;47.264;11.330;2022-08-27T09:05:31;2.33;;;2.10;;
29546;SDS011;40782;47.264;11.330;2022-08-27T09:08:05;2.42;;;2.33;;
29546;SDS011;40782;47.264;11.330;2022-08-27T09:10:40;4.57;;;4.15;;
29546;SDS011;40782;47.264;11.330;2022-08-27T09:13:13;2.25;;;2.15;;
29546;SDS011;40782;47.264;11.330;2022-08-27T09:15:46;2.05;;;1.85;;
29546;SDS011;40782;47.264;11.330;2022-08-27T09:18:14;2.90;;;1.77;;
29546;SDS011;40782;47.264;11.330;2022-08-27T09:20:44;2.67;;;2.42;;
29546;SDS011;40782;47.264;11.330;2022-08-27T09:23:17;12.02;;;10.80;;
29546;SDS011;40782;47.264;11.330;2022-08-27T09:25:50;10.80;;;9.70;;
29546;SDS011;40782;47.264;11.330;2022-08-27T09:28:19;4.05;;;3.75;;
29546;SDS011;40782;47.264;11.330;2022-08-27T09:31:07;2.70;;;2.50;;
29546;SDS011;40782;47.264;11.330;2022-08-27T09:33:38;4.40;;;3.97;;
29546;SDS011;40782;47.264;11.330;2022-08-27T09:36:07;2.75;;;2.58;;
29546;SDS011;40782;47.264;11.330;2022-08-27T09:38:39;2.97;;;2.70;;
29546;SDS011;40782;47.264;11.330;2022-08-27T09:41:16;2.90;;;2.80;;
29546;SDS011;40782;47.264;11.330;2022-08-27T09:43:55;2.55;;;2.40;;
29546;SDS011;40782;47.264;11.330;2022-08-27T09:46:23;6.32;;;5.82;;
29546;SDS011;40782;47.264;11.330;2022-08-27T09:48:52;2.75;;;2.42;;
29546;SDS011;40782;47.264;11.330;2022-08-27T09:51:22;5.88;;;5.38;;
29546;SDS011;40782;47.264;11.330;2022-08-27T09:53:54;4.18;;;3.38;;
29546;SDS011;40782;47.264;11.330;2022-08-27T09:56:25;4.85;;;4.45;;
29546;SDS011;40782;47.264;11.330;2022-08-27T09:58:55;2.97;;;2.70;;
29546;SDS011;40782;47.264;11.330;2022-08-27T10:01:28;3.53;;;3.30;;
29546;SDS011;40782;47.264;11.330;2022-08-27T10:04:05;2.70;;;2.50;;
29546;SDS011;40782;47.264;11.330;2022-08-27T10:06:35;2.10;;;2.00;;
29546;SDS011;40782;47.264;11.330;2022-08-27T10:09:07;2.60;;;2.40;;
29546;SDS011;40782;47.264;11.330;2022-08-27T10:11:39;2.58;;;2.38;;
29546;SDS011;40782;47.264;11.330;2022-08-27T10:14:12;2.25;;;2.15;;
29546;SDS011;40782;47.264;11.330;2022-08-27T10:16:47;4.03;;;2.45;;
29546;SDS011;40782;47.264;11.330;2022-08-27T10:19:34;2.60;;;2.40;;
29546;SDS011;40782;47.264;11.330;2022-08-27T10:22:13;1.90;;;1.80;;
29546;SDS011;40782;47.264;11.330;2022-08-27T10:24:56;1.92;;;1.83;;
29546;SDS011;40782;47.264;11.330;2022-08-27T10:27:36;1.98;;;1.88;;
29546;SDS011;40782;47.264;11.330;2022-08-27T10:30:11;1.92;;;1.83;;
29546;SDS011;40782;47.264;11.330;2022-08-27T10:32:46;1.77;;;1.70;;
29546;SDS011;40782;47.264;11.330;2022-08-27T10:35:22;1.50;;;1.50;;
29546;SDS011;40782;47.264;11.330;2022-08-27T10:37:56;2.15;;;1.83;;
29546;SDS011;40782;47.264;11.330;2022-08-27T10:40:35;1.92;;;1.83;;
29546;SDS011;40782;47.264;11.330;2022-08-27T10:43:10;2.05;;;1.95;;
29546;SDS011;40782;47.264;11.330;2022-08-27T10:45:45;2.10;;;2.00;;
29546;SDS011;40782;47.264;11.330;2022-08-27T10:48:21;2.17;;;2.08;;
29546;SDS011;40782;47.264;11.330;2022-08-27T10:50:55;1.90;;;1.80;;
29546;SDS011;40782;47.264;11.330;2022-08-27T10:53:32;1.83;;;1.73;;
29546;SDS011;40782;47.264;11.330;2022-08-27T10:56:09;2.92;;;1.95;;
29546;SDS011;40782;47.264;11.330;2022-08-27T10:58:49;1.80;;;1.70;;
29546;SDS011;40782;47.264;11.330;2022-08-27T11:01:25;2.05;;;1.88;;
29546;SDS011;40782;47.264;11.330;2022-08-27T11:04:01;2.03;;;1.92;;
29546;SDS011;40782;47.264;11.330;2022-08-27T11:06:34;1.98;;;1.77;;
29546;SDS011;40782;47.264;11.330;2022-08-27T11:09:05;2.38;;;2.20;;
29546;SDS011;40782;47.264;11.330;2022-08-27T11:11:41;2.47;;;2.38;;
29546;SDS011;40782;47.264;11.330;2022-08-27T11:14:13;2.00;;;1.90;;
29546;SDS011;40782;47.264;11.330;2022-08-27T11:16:51;2.30;;;2.20;;
29546;SDS011;40782;47.264;11.330;2022-08-27T11:19:22;1.92;;;1.90;;
29546;SDS011;40782;47.264;11.330;2022-08-27T11:21:59;2.08;;;1.90;;
29546;SDS011;40782;47.264;11.330;2022-08-27T11:24:31;2.30;;;2.20;;
29546;SDS011;40782;47.264;11.330;2022-08-27T11:27:07;2.08;;;1.98;;
29546;SDS011;40782;47.264;11.330;2022-08-27T11:29:34;2.97;;;2.30;;
29546;SDS011;40782;47.264;11.330;2022-08-27T11:32:10;1.90;;;1.80;;
29546;SDS011;40782;47.264;11.330;2022-08-27T11:34:45;1.65;;;1.65;;
29546;SDS011;40782;47.264;11.330;2022-08-27T11:37:23;2.08;;;1.98;;
29546;SDS011;40782;47.264;11.330;2022-08-27T11:40:20;1.55;;;1.50;;
29546;SDS011;40782;47.264;11.330;2022-08-27T11:45:28;1.85;;;1.85;;
29546;SDS011;40782;47.264;11.330;2022-08-27T11:47:59;2.05;;;1.88;;
29546;SDS011;40782;47.264;11.330;2022-08-27T11:50:28;2.30;;;2.10;;
29546;SDS011;40782;47.264;11.330;2022-08-27T11:52:57;2.00;;;1.90;;
29546;SDS011;40782;47.264;11.330;2022-08-27T11:55:28;1.83;;;1.73;;
29546;SDS011;40782;47.264;11.330;2022-08-27T11:58:06;2.13;;;1.98;;
29546;SDS011;40782;47.264;11.330;2022-08-27T12:00:36;1.92;;;1.55;;
29546;SDS011;40782;47.264;11.330;2022-08-27T12:03:06;1.90;;;1.80;;
29546;SDS011;40782;47.264;11.330;2022-08-27T12:05:37;2.03;;;1.88;;
29546;SDS011;40782;47.264;11.330;2022-08-27T12:08:12;1.80;;;1.70;;
29546;SDS011;40782;47.264;11.330;2022-08-27T12:10:47;1.77;;;1.70;;
29546;SDS011;40782;47.264;11.330;2022-08-27T12:13:27;1.90;;;1.80;;
29546;SDS011;40782;47.264;11.330;2022-08-27T12:16:02;1.77;;;1.55;;
29546;SDS011;40782;47.264;11.330;2022-08-27T12:18:48;1.90;;;1.80;;
29546;SDS011;40782;47.264;11.330;2022-08-27T12:21:28;1.63;;;1.63;;
29546;SDS011;40782;47.264;11.330;2022-08-27T12:24:06;1.70;;;1.70;;
29546;SDS011;40782;47.264;11.330;2022-08-27T12:26:53;2.22;;;2.00;;
29546;SDS011;40782;47.264;11.330;2022-08-27T12:29:27;4.18;;;3.78;;
29546;SDS011;40782;47.264;11.330;2022-08-27T12:32:03;2.40;;;2.30;;
29546;SDS011;40782;47.264;11.330;2022-08-27T12:34:40;2.40;;;2.30;;
29546;SDS011;40782;47.264;11.330;2022-08-27T12:37:10;2.47;;;2.33;;
29546;SDS011;40782;47.264;11.330;2022-08-27T12:39:39;2.28;;;2.17;;
29546;SDS011;40782;47.264;11.330;2022-08-27T12:42:14;2.63;;;2.30;;
29546;SDS011;40782;47.264;11.330;2022-08-27T12:44:52;2.58;;;2.22;;
29546;SDS011;40782;47.264;11.330;2022-08-27T12:47:20;3.20;;;2.53;;
29546;SDS011;40782;47.264;11.330;2022-08-27T12:49:50;2.75;;;2.58;;
29546;SDS011;40782;47.264;11.330;2022-08-27T12:52:33;2.63;;;2.53;;
29546;SDS011;40782;47.264;11.330;2022-08-27T12:55:20;2.58;;;2.38;;
29546;SDS011;40782;47.264;11.330;2022-08-27T12:57:59;2.38;;;2.28;;
29546;SDS011;40782;47.264;11.330;2022-08-27T13:00:45;2.95;;;2.15;;
29546;SDS011;40782;47.264;11.330;2022-08-27T13:03:28;2.13;;;2.03;;
29546;SDS011;40782;47.264;11.330;2022-08-27T13:05:59;1.95;;;1.85;;
29546;SDS011;40782;47.264;11.330;2022-08-27T13:08:27;2.30;;;2.10;;
29546;SDS011;40782;47.264;11.330;2022-08-27T13:11:08;1.95;;;1.85;;
29546;SDS011;40782;47.264;11.330;2022-08-27T13:13:36;1.88;;;1.77;;
29546;SDS011;40782;47.264;11.330;2022-08-27T13:16:05;1.90;;;1.80;;
29546;SDS011;40782;47.264;11.330;2022-08-27T13:18:35;2.08;;;1.98;;
29546;SDS011;40782;47.264;11.330;2022-08-27T13:21:03;2.10;;;2.00;;
29546;SDS011;40782;47.264;11.330;2022-08-27T13:23:36;2.03;;;1.95;;
29546;SDS011;40782;47.264;11.330;2022-08-27T13:26:11;1.88;;;1.77;;
29546;SDS011;40782;47.264;11.330;2022-08-27T13:28:38;1.90;;;1.80;;
29546;SDS011;40782;47.264;11.330;2022-08-27T13:31:09;2.03;;;1.92;;
29546;SDS011;40782;47.264;11.330;2022-08-27T13:33:37;1.70;;;1.60;;
29546;SDS011;40782;47.264;11.330;2022-08-27T13:36:07;2.20;;;2.10;;
29546;SDS011;40782;47.264;11.330;2022-08-27T13:38:35;1.70;;;1.70;;
29546;SDS011;40782;47.264;11.330;2022-08-27T13:41:05;1.80;;;1.70;;
29546;SDS011;40782;47.264;11.330;2022-08-27T13:43:38;1.85;;;1.77;;
29546;SDS011;40782;47.264;11.330;2022-08-27T13:46:11;1.80;;;1.75;;
29546;SDS011;40782;47.264;11.330;2022-08-27T13:48:42;2.10;;;2.00;;
29546;SDS011;40782;47.264;11.330;2022-08-27T13:51:11;2.10;;;2.00;;
29546;SDS011;40782;47.264;11.330;2022-08-27T13:53:41;2.30;;;1.73;;
29546;SDS011;40782;47.264;11.330;2022-08-27T13:56:30;2.20;;;2.10;;
29546;SDS011;40782;47.264;11.330;2022-08-27T13:59:06;2.08;;;1.98;;
29546;SDS011;40782;47.264;11.330;2022-08-27T14:01:36;1.95;;;1.85;;
29546;SDS011;40782;47.264;11.330;2022-08-27T14:04:07;2.10;;;1.90;;
29546;SDS011;40782;47.264;11.330;2022-08-27T14:06:46;1.65;;;1.65;;
29546;SDS011;40782;47.264;11.330;2022-08-27T14:09:15;2.10;;;2.00;;
29546;SDS011;40782;47.264;11.330;2022-08-27T14:11:48;2.00;;;1.90;;
29546;SDS011;40782;47.264;11.330;2022-08-27T14:14:24;2.20;;;2.10;;
29546;SDS011;40782;47.264;11.330;2022-08-27T14:16:57;2.20;;;2.10;;
29546;SDS011;40782;47.264;11.330;2022-08-27T14:21:56;2.28;;;2.17;;
29546;SDS011;40782;47.264;11.330;2022-08-27T14:24:27;1.73;;;1.73;;
29546;SDS011;40782;47.264;11.330;2022-08-27T14:27:01;2.15;;;2.03;;
29546;SDS011;40782;47.264;11.330;2022-08-27T14:29:31;2.20;;;2.10;;
29546;SDS011;40782;47.264;11.330;2022-08-27T14:32:00;2.20;;;2.10;;
29546;SDS011;40782;47.264;11.330;2022-08-27T14:34:27;2.88;;;2.67;;
29546;SDS011;40782;47.264;11.330;2022-08-27T14:36:54;6.03;;;2.95;;
29546;SDS011;40782;47.264;11.330;2022-08-27T14:39:22;2.80;;;2.70;;
29546;SDS011;40782;47.264;11.330;2022-08-27T14:41:49;2.58;;;2.33;;
29546;SDS011;40782;47.264;11.330;2022-08-27T14:44:16;2.80;;;2.60;;
29546;SDS011;40782;47.264;11.330;2022-08-27T14:46:43;3.10;;;2.80;;
29546;SDS011;40782;47.264;11.330;2022-08-27T14:49:14;6.13;;;3.40;;
29546;SDS011;40782;47.264;11.330;2022-08-27T14:51:47;3.40;;;3.20;;
29546;SDS011;40782;47.264;11.330;2022-08-27T14:54:14;4.28;;;3.15;;
29546;SDS011;40782;47.264;11.330;2022-08-27T14:56:41;3.40;;;3.17;;
29546;SDS011;40782;47.264;11.330;2022-08-27T14:59:08;3.40;;;3.20;;
29546;SDS011;40782;47.264;11.330;2022-08-27T15:01:35;3.85;;;3.33;;
29546;SDS011;40782;47.264;11.330;2022-08-27T15:04:03;3.53;;;3.33;;